Time;durP1;ratioP1;P1;durP2;ratioP2;P2;SDS_P1;SDS_P2;PMS_P1;PMS_P2;Temp;Humidity;BMP_temperature;BMP_pressure;BME280_temperature;BME280_humidity;BME280_pressure;Samples;Min_cycle;Max_cycle;Signal;HPM_P1;HPM_P2
2023/09/22 00:00:43;;;;;;;2.70;1.10;;;17.40;99.90;;;;;;5014723;28;20038;-81
2023/09/22 00:03:08;;;;;;;1.63;1.30;;;17.40;99.90;;;;;;5018637;28;20079;-81
2023/09/22 00:05:35;;;;;;;2.17;1.40;;;17.40;99.90;;;;;;5012860;28;20030;-81
2023/09/22 00:08:01;;;;;;;1.00;0.85;;;17.40;99.90;;;;;;5030496;28;20030;-80
2023/09/22 00:10:26;;;;;;;2.97;1.42;;;17.30;99.90;;;;;;5026072;28;20045;-81
2023/09/22 00:12:54;;;;;;;2.17;1.45;;;17.30;99.90;;;;;;5014498;28;20659;-81
2023/09/22 00:15:20;;;;;;;1.13;0.95;;;17.30;99.90;;;;;;5005982;28;20032;-82
2023/09/22 00:17:45;;;;;;;0.98;0.88;;;17.30;99.90;;;;;;5011273;28;20019;-80
2023/09/22 00:20:13;;;;;;;1.50;1.10;;;17.20;99.90;;;;;;5008479;28;20025;-80
2023/09/22 00:22:38;;;;;;;1.77;1.30;;;17.30;99.90;;;;;;5006678;28;20100;-80
2023/09/22 00:25:05;;;;;;;2.70;1.50;;;17.20;99.90;;;;;;5009023;28;20541;-80
2023/09/22 00:27:30;;;;;;;1.30;1.20;;;17.20;99.90;;;;;;5008371;28;20093;-81
2023/09/22 00:29:56;;;;;;;1.50;1.27;;;17.20;99.90;;;;;;5008438;28;20121;-80
2023/09/22 00:32:21;;;;;;;1.40;1.30;;;17.10;99.90;;;;;;5006539;28;20042;-81
2023/09/22 00:34:47;;;;;;;1.42;1.33;;;17.00;99.90;;;;;;5004509;28;20041;-81
2023/09/22 00:37:12;;;;;;;1.80;1.50;;;17.10;99.90;;;;;;5005805;28;20010;-80
2023/09/22 00:39:38;;;;;;;2.30;1.63;;;17.00;99.90;;;;;;5007150;28;20054;-80
2023/09/22 00:42:08;;;;;;;2.00;1.77;;;16.90;99.90;;;;;;4997733;28;20498;-80
2023/09/22 00:44:33;;;;;;;3.78;2.13;;;17.00;99.90;;;;;;5007439;28;20025;-80
2023/09/22 00:46:59;;;;;;;3.30;2.00;;;17.00;99.90;;;;;;5012917;28;20489;-80
2023/09/22 00:49:26;;;;;;;1.83;1.73;;;17.00;99.90;;;;;;5010019;28;20022;-79
2023/09/22 00:51:52;;;;;;;2.95;1.80;;;16.90;99.90;;;;;;5011768;28;20033;-81
2023/09/22 00:54:18;;;;;;;2.30;2.10;;;16.90;99.90;;;;;;5008591;28;20025;-81
2023/09/22 00:56:45;;;;;;;4.40;2.58;;;16.90;99.90;;;;;;5006409;28;20018;-81
2023/09/22 00:59:11;;;;;;;2.40;2.20;;;16.80;99.90;;;;;;5015514;28;20014;-80
2023/09/22 01:01:37;;;;;;;2.80;2.55;;;16.80;99.90;;;;;;5012566;28;20112;-81
2023/09/22 01:04:03;;;;;;;2.63;2.40;;;16.80;99.90;;;;;;5015488;28;20072;-82
2023/09/22 01:06:29;;;;;;;3.58;2.40;;;16.70;99.90;;;;;;5024196;28;20485;-81
2023/09/22 01:08:56;;;;;;;3.90;2.88;;;16.70;99.90;;;;;;5006071;28;20112;-82
2023/09/22 01:11:21;;;;;;;4.00;2.90;;;16.70;99.90;;;;;;5009803;28;20068;-81
2023/09/22 01:13:47;;;;;;;3.60;3.30;;;16.70;99.90;;;;;;5009215;28;20037;-81
2023/09/22 01:16:12;;;;;;;4.55;3.47;;;16.70;99.90;;;;;;5011736;28;20014;-82
2023/09/22 01:18:38;;;;;;;4.18;3.78;;;16.60;99.90;;;;;;5011071;28;20022;-82
2023/09/22 01:21:03;;;;;;;5.78;4.47;;;16.70;99.90;;;;;;5009663;28;20017;-82
2023/09/22 01:23:29;;;;;;;5.40;4.18;;;16.70;99.90;;;;;;5010107;28;20027;-81
2023/09/22 01:25:55;;;;;;;4.55;4.15;;;16.70;99.90;;;;;;5005345;28;20525;-80
2023/09/22 01:28:20;;;;;;;5.40;4.90;;;16.70;99.90;;;;;;5010657;28;20021;-80
2023/09/22 01:30:46;;;;;;;5.15;4.65;;;16.70;99.90;;;;;;5007373;28;20113;-82
2023/09/22 01:33:12;;;;;;;5.45;4.82;;;16.70;99.90;;;;;;5007730;28;20025;-82
2023/09/22 01:35:37;;;;;;;6.85;5.13;;;16.60;99.90;;;;;;5000547;28;20109;-82
2023/09/22 01:38:24;;;;;;;5.13;4.63;;;16.60;99.90;;;;;;5002100;28;20014;-81
2023/09/22 01:40:51;;;;;;;4.10;3.80;;;16.60;99.90;;;;;;5003925;28;20038;-82
2023/09/22 01:43:19;;;;;;;4.10;3.70;;;16.50;99.90;;;;;;5007359;28;20030;-82
2023/09/22 01:45:45;;;;;;;3.90;3.60;;;16.50;99.90;;;;;;5005425;28;20037;-81
2023/09/22 01:48:11;;;;;;;3.50;3.20;;;16.40;99.90;;;;;;5004722;28;20233;-82
2023/09/22 01:50:38;;;;;;;4.85;4.05;;;16.40;99.90;;;;;;5007584;28;20078;-82
2023/09/22 01:53:05;;;;;;;3.65;3.30;;;16.40;99.90;;;;;;5009834;28;20049;-81
2023/09/22 01:55:31;;;;;;;4.30;3.70;;;16.30;99.90;;;;;;5010133;28;20071;-80
2023/09/22 01:57:57;;;;;;;3.05;2.78;;;16.30;99.90;;;;;;5001664;28;20762;-81
2023/09/22 02:00:23;;;;;;;3.90;3.50;;;16.30;99.90;;;;;;5011001;28;20022;-82
2023/09/22 02:02:48;;;;;;;4.18;3.03;;;16.30;99.90;;;;;;5006181;28;20037;-82
2023/09/22 02:05:14;;;;;;;2.90;2.63;;;16.30;99.90;;;;;;5003757;28;20032;-81
2023/09/22 02:07:40;;;;;;;2.63;2.42;;;16.30;99.90;;;;;;5011339;28;20103;-82
2023/09/22 02:10:09;;;;;;;3.60;3.03;;;16.30;99.90;;;;;;5016596;28;20029;-81
2023/09/22 02:12:35;;;;;;;4.55;2.70;;;16.30;99.90;;;;;;5011469;28;20030;-80
2023/09/22 02:15:01;;;;;;;3.03;2.13;;;16.20;99.90;;;;;;5007211;28;20026;-81
2023/09/22 02:17:27;;;;;;;2.58;1.67;;;16.20;99.90;;;;;;5005110;28;20789;-79
2023/09/22 02:19:53;;;;;;;2.05;1.70;;;16.20;99.90;;;;;;5007258;28;20092;-81
2023/09/22 02:22:18;;;;;;;1.92;1.70;;;16.20;99.90;;;;;;5004358;28;20049;-81
2023/09/22 02:24:44;;;;;;;1.55;1.45;;;16.20;99.90;;;;;;5005826;28;20029;-80
2023/09/22 02:27:10;;;;;;;1.85;1.40;;;16.20;99.90;;;;;;5005195;28;20022;-80
2023/09/22 02:29:35;;;;;;;2.80;1.83;;;16.20;99.90;;;;;;5005069;28;20785;-80
2023/09/22 02:32:01;;;;;;;1.73;1.60;;;16.20;99.90;;;;;;5000990;28;20018;-80
2023/09/22 02:34:27;;;;;;;1.35;1.25;;;16.10;99.90;;;;;;5002761;28;20053;-81
2023/09/22 02:36:52;;;;;;;1.50;1.30;;;16.10;99.90;;;;;;5009862;28;20030;-80
2023/09/22 02:39:18;;;;;;;1.33;1.23;;;16.10;99.90;;;;;;5003773;28;20030;-81
2023/09/22 02:41:44;;;;;;;2.55;1.63;;;16.10;99.90;;;;;;5001490;28;20083;-80
2023/09/22 02:44:12;;;;;;;1.75;1.65;;;16.00;99.90;;;;;;5006180;28;20164;-80
2023/09/22 02:46:37;;;;;;;2.65;1.58;;;16.00;99.90;;;;;;5002678;28;20034;-81
2023/09/22 02:49:03;;;;;;;1.40;1.30;;;16.00;99.90;;;;;;5005891;28;20068;-81
2023/09/22 02:51:28;;;;;;;1.50;1.15;;;16.00;99.90;;;;;;5007850;28;20048;-80
2023/09/22 02:53:55;;;;;;;1.45;1.27;;;16.00;99.90;;;;;;5005982;28;20097;-79
2023/09/22 02:56:20;;;;;;;1.33;1.23;;;15.90;99.90;;;;;;5011226;28;20018;-80
2023/09/22 02:58:46;;;;;;;1.40;1.30;;;15.90;99.90;;;;;;5005178;28;20085;-80
2023/09/22 03:01:14;;;;;;;1.35;1.25;;;15.90;99.90;;;;;;5013830;28;20048;-80
2023/09/22 03:03:42;;;;;;;1.48;1.38;;;15.80;99.90;;;;;;5010763;28;20018;-80
2023/09/22 03:06:11;;;;;;;1.55;1.20;;;15.80;99.90;;;;;;5012874;28;20025;-80
2023/09/22 03:08:37;;;;;;;1.75;1.20;;;15.80;99.90;;;;;;5007075;28;20029;-80
2023/09/22 03:11:03;;;;;;;1.50;1.40;;;15.80;99.90;;;;;;5011089;28;20521;-80
2023/09/22 03:13:29;;;;;;;2.20;1.30;;;15.70;99.90;;;;;;5011554;28;20022;-81
2023/09/22 03:15:55;;;;;;;1.17;1.08;;;15.70;99.90;;;;;;5010132;28;20392;-80
2023/09/22 03:18:20;;;;;;;1.60;1.23;;;15.70;99.90;;;;;;5008327;28;20089;-80
2023/09/22 03:20:46;;;;;;;1.17;1.05;;;15.70;99.90;;;;;;5010764;28;20156;-80
2023/09/22 03:23:12;;;;;;;1.92;1.05;;;15.70;99.90;;;;;;5007871;28;20101;-80
2023/09/22 03:25:38;;;;;;;1.35;1.20;;;15.70;99.90;;;;;;5008503;28;20062;-80
2023/09/22 03:28:04;;;;;;;1.08;0.98;;;15.70;99.90;;;;;;5007192;28;20684;-80
2023/09/22 03:30:30;;;;;;;1.42;1.25;;;15.70;99.90;;;;;;5008086;28;20037;-81
2023/09/22 03:32:56;;;;;;;1.10;1.00;;;15.70;99.90;;;;;;5006746;28;20026;-81
2023/09/22 03:35:22;;;;;;;1.60;1.50;;;15.70;99.90;;;;;;5009809;28;20025;-81
2023/09/22 03:37:48;;;;;;;1.90;1.67;;;15.70;99.90;;;;;;5005871;28;20022;-80
2023/09/22 03:40:14;;;;;;;2.00;1.50;;;15.70;99.90;;;;;;5007944;28;20018;-80
2023/09/22 03:42:41;;;;;;;1.67;1.58;;;15.60;99.90;;;;;;5004770;28;20026;-81
2023/09/22 03:45:07;;;;;;;3.15;1.65;;;15.60;99.90;;;;;;5012748;28;20037;-78
2023/09/22 03:47:33;;;;;;;1.83;1.67;;;15.60;99.90;;;;;;5017781;28;20101;-81
2023/09/22 03:49:58;;;;;;;3.00;1.60;;;15.60;99.90;;;;;;5013018;28;20108;-80
2023/09/22 03:52:25;;;;;;;1.67;1.50;;;15.60;99.90;;;;;;5014112;28;20034;-81
2023/09/22 03:54:50;;;;;;;1.92;1.70;;;15.50;99.90;;;;;;5005590;28;20022;-81
2023/09/22 03:57:16;;;;;;;2.60;2.40;;;15.50;99.90;;;;;;5011929;28;20660;-81
2023/09/22 03:59:42;;;;;;;2.65;2.13;;;15.50;99.90;;;;;;5018861;28;20049;-79
2023/09/22 04:02:07;;;;;;;2.20;2.03;;;15.50;99.90;;;;;;5009896;28;20685;-79
2023/09/22 04:04:33;;;;;;;2.40;2.20;;;15.40;99.90;;;;;;5010379;28;20022;-80
2023/09/22 04:06:59;;;;;;;2.15;1.95;;;15.40;99.90;;;;;;5012578;28;20030;-80
2023/09/22 04:09:25;;;;;;;2.70;2.50;;;15.40;99.90;;;;;;5012572;28;20116;-80
2023/09/22 04:11:52;;;;;;;2.97;2.60;;;15.30;99.90;;;;;;5010318;28;20535;-79
2023/09/22 04:14:19;;;;;;;2.75;2.17;;;15.30;99.90;;;;;;5007166;28;20021;-80
2023/09/22 04:16:44;;;;;;;2.55;2.35;;;15.30;99.90;;;;;;5006430;28;20035;-80
2023/09/22 04:19:10;;;;;;;2.97;2.42;;;15.20;99.90;;;;;;5006409;28;20109;-80
2023/09/22 04:21:43;;;;;;;2.88;2.50;;;15.20;99.90;;;;;;5005740;28;20026;-80
2023/09/22 04:24:11;;;;;;;2.50;2.30;;;15.20;99.90;;;;;;5010838;28;20053;-80
2023/09/22 04:26:42;;;;;;;1.63;1.52;;;15.20;99.90;;;;;;5008765;28;20029;-80
2023/09/22 04:29:11;;;;;;;1.92;1.70;;;15.20;99.90;;;;;;4992699;28;20030;-80
2023/09/22 04:31:38;;;;;;;2.72;2.40;;;15.10;99.90;;;;;;4997121;28;20524;-80
2023/09/22 04:34:03;;;;;;;2.83;2.10;;;15.10;99.90;;;;;;5000881;28;20017;-80
2023/09/22 04:36:31;;;;;;;2.30;2.00;;;15.10;99.90;;;;;;5001105;28;20018;-80
2023/09/22 04:38:57;;;;;;;2.83;2.20;;;15.00;99.90;;;;;;5007150;28;20112;-80
2023/09/22 04:41:23;;;;;;;2.55;2.30;;;15.00;99.90;;;;;;5002900;28;20108;-80
2023/09/22 04:43:48;;;;;;;2.17;1.98;;;15.00;99.90;;;;;;5008582;28;20149;-80
2023/09/22 04:46:15;;;;;;;2.75;2.55;;;15.10;99.90;;;;;;5004050;28;20037;-80
2023/09/22 04:48:41;;;;;;;3.50;2.72;;;15.00;99.90;;;;;;5007282;28;20113;-79
2023/09/22 04:51:07;;;;;;;2.80;2.50;;;15.10;99.90;;;;;;5012405;28;20100;-80
2023/09/22 04:53:33;;;;;;;3.28;2.97;;;15.10;99.90;;;;;;4999298;28;20675;-80
2023/09/22 04:56:04;;;;;;;3.55;2.92;;;15.10;99.90;;;;;;4996141;28;20033;-80
2023/09/22 04:58:30;;;;;;;6.65;3.60;;;15.10;99.90;;;;;;4999007;28;20050;-80
2023/09/22 05:00:57;;;;;;;3.33;3.03;;;15.00;99.90;;;;;;4999806;28;20108;-80
2023/09/22 05:03:25;;;;;;;3.72;3.30;;;15.00;99.90;;;;;;5004355;28;20395;-80
2023/09/22 05:05:51;;;;;;;3.55;3.17;;;14.90;99.90;;;;;;5001852;28;20089;-80
2023/09/22 05:08:16;;;;;;;2.60;2.40;;;14.90;99.90;;;;;;5000951;28;20022;-79
2023/09/22 05:10:47;;;;;;;3.33;3.03;;;14.90;99.90;;;;;;5009757;28;20057;-80
2023/09/22 05:13:14;;;;;;;6.13;3.90;;;14.90;99.90;;;;;;5020448;28;20112;-80
2023/09/22 05:15:41;;;;;;;4.20;3.80;;;14.90;99.90;;;;;;5006261;28;20025;-81
2023/09/22 05:18:12;;;;;;;4.22;3.83;;;14.90;99.90;;;;;;5011529;28;20049;-80
2023/09/22 05:20:39;;;;;;;4.05;3.50;;;15.00;99.90;;;;;;5002993;28;20639;-80
2023/09/22 05:23:05;;;;;;;6.10;5.13;;;14.90;99.90;;;;;;5005137;28;20397;-80
2023/09/22 05:25:30;;;;;;;5.50;4.75;;;15.00;99.90;;;;;;5002588;28;20049;-80
2023/09/22 05:27:56;;;;;;;5.68;5.10;;;15.00;99.90;;;;;;5002497;28;20034;-80
2023/09/22 05:30:23;;;;;;;6.13;5.30;;;15.00;99.90;;;;;;5009740;28;20022;-80
2023/09/22 05:32:49;;;;;;;7.65;4.90;;;15.00;99.90;;;;;;5004741;28;20579;-80
2023/09/22 05:35:15;;;;;;;7.05;6.13;;;15.00;99.90;;;;;;5005297;28;20505;-81
2023/09/22 05:37:42;;;;;;;7.38;6.30;;;15.00;99.90;;;;;;4999876;28;20023;-80
2023/09/22 05:40:12;;;;;;;7.72;6.90;;;15.10;99.90;;;;;;5001748;28;20026;-80
2023/09/22 05:42:39;;;;;;;8.05;6.95;;;15.10;99.90;;;;;;5005230;28;20030;-80
2023/09/22 05:45:05;;;;;;;7.65;6.85;;;15.10;99.90;;;;;;5005329;28;20026;-80
2023/09/22 05:47:30;;;;;;;9.38;7.53;;;15.10;99.90;;;;;;5007753;28;20026;-80
2023/09/22 05:49:56;;;;;;;8.23;7.40;;;15.00;99.90;;;;;;5012558;28;20488;-81
2023/09/22 05:52:21;;;;;;;10.00;7.70;;;15.00;99.90;;;;;;4996312;28;20026;-78
2023/09/22 05:54:47;;;;;;;10.27;8.15;;;15.00;99.90;;;;;;4996339;28;20491;-79
2023/09/22 05:57:13;;;;;;;9.85;8.18;;;15.00;99.90;;;;;;5004527;28;20026;-80
2023/09/22 05:59:39;;;;;;;9.10;8.15;;;15.10;99.90;;;;;;5002840;28;20018;-80
2023/09/22 06:02:05;;;;;;;9.45;8.20;;;15.10;99.90;;;;;;5009425;28;20025;-80
2023/09/22 06:04:32;;;;;;;8.18;7.32;;;15.20;99.90;;;;;;5004759;28;20014;-79
2023/09/22 06:06:58;;;;;;;11.65;8.27;;;15.30;99.90;;;;;;5007043;28;20030;-80
2023/09/22 06:09:24;;;;;;;8.50;7.60;;;15.30;99.90;;;;;;5000110;28;20023;-80
2023/09/22 06:11:49;;;;;;;10.30;9.07;;;15.30;99.90;;;;;;5007084;28;20030;-80
2023/09/22 06:14:15;;;;;;;8.82;7.97;;;15.30;99.90;;;;;;5002593;28;20491;-80
2023/09/22 06:16:41;;;;;;;9.88;8.88;;;15.40;99.90;;;;;;5005029;28;20049;-79
2023/09/22 06:19:10;;;;;;;9.23;8.23;;;15.40;99.90;;;;;;5013981;28;20064;-80
2023/09/22 06:21:37;;;;;;;9.65;8.25;;;15.40;99.90;;;;;;5003809;28;20034;-80
2023/09/22 06:24:04;;;;;;;10.00;8.35;;;15.40;99.90;;;;;;5010232;28;20108;-80
2023/09/22 06:26:31;;;;;;;8.43;7.50;;;15.50;99.90;;;;;;5009028;28;20033;-80
2023/09/22 06:28:57;;;;;;;10.85;8.48;;;15.50;99.90;;;;;;5003278;28;20611;-79
2023/09/22 06:31:23;;;;;;;9.80;7.35;;;15.50;99.90;;;;;;4998017;28;20037;-80
2023/09/22 06:33:49;;;;;;;10.32;7.20;;;15.50;99.90;;;;;;5008249;28;20560;-80
2023/09/22 06:36:15;;;;;;;9.50;8.60;;;15.50;99.90;;;;;;5005932;28;20030;-79
2023/09/22 06:38:41;;;;;;;10.98;8.88;;;15.50;99.90;;;;;;5007107;28;20475;-79
2023/09/22 06:41:06;;;;;;;10.30;8.32;;;15.60;99.90;;;;;;5008673;28;20160;-80
2023/09/22 06:43:33;;;;;;;13.40;9.15;;;15.60;99.90;;;;;;5002249;28;20022;-80
2023/09/22 06:46:03;;;;;;;9.93;8.90;;;15.60;99.90;;;;;;5005372;28;20443;-79
2023/09/22 06:48:29;;;;;;;9.50;8.25;;;15.60;99.90;;;;;;5001201;28;20511;-80
2023/09/22 06:50:57;;;;;;;8.70;7.70;;;15.60;99.90;;;;;;5009999;28;20033;-80
2023/09/22 06:53:24;;;;;;;11.48;8.75;;;15.60;99.90;;;;;;5008677;28;20032;-79
2023/09/22 06:55:59;;;;;;;11.27;8.95;;;15.60;99.90;;;;;;5011363;28;20029;-80
2023/09/22 06:58:25;;;;;;;8.82;7.93;;;15.70;99.90;;;;;;5003884;28;20050;-80
2023/09/22 07:00:50;;;;;;;12.70;11.40;;;15.70;99.90;;;;;;5002445;28;20535;-79
2023/09/22 07:03:16;;;;;;;12.45;8.43;;;15.70;99.90;;;;;;4999880;28;20034;-79
2023/09/22 07:05:43;;;;;;;9.23;8.23;;;15.80;99.90;;;;;;5007899;28;20026;-79
2023/09/22 07:08:09;;;;;;;10.20;7.93;;;15.80;99.90;;;;;;5013061;28;20179;-80
2023/09/22 07:10:35;;;;;;;8.88;7.88;;;15.80;99.90;;;;;;5005389;28;20102;-80
2023/09/22 07:13:01;;;;;;;8.48;7.57;;;15.90;99.90;;;;;;5005101;28;20076;-79
2023/09/22 07:15:27;;;;;;;8.50;7.28;;;15.90;99.90;;;;;;5010900;28;20022;-79
2023/09/22 07:17:53;;;;;;;9.63;7.72;;;15.90;99.90;;;;;;5007163;28;20026;-80
2023/09/22 07:20:19;;;;;;;10.75;7.65;;;15.90;99.90;;;;;;5004900;28;20113;-79
2023/09/22 07:22:44;;;;;;;10.93;7.68;;;15.90;99.90;;;;;;5012346;28;20026;-80
2023/09/22 07:25:11;;;;;;;7.43;6.63;;;15.90;99.90;;;;;;5012326;28;20029;-79
2023/09/22 07:27:39;;;;;;;7.38;6.68;;;15.90;99.90;;;;;;5004118;28;20085;-80
2023/09/22 07:30:09;;;;;;;7.18;6.47;;;15.90;99.90;;;;;;5008197;28;20034;-79
2023/09/22 07:32:36;;;;;;;10.07;6.95;;;15.90;99.90;;;;;;5010940;28;20033;-80
2023/09/22 07:35:02;;;;;;;7.95;7.15;;;15.90;99.90;;;;;;5012727;28;20018;-80
2023/09/22 07:37:27;;;;;;;7.63;6.93;;;15.90;99.90;;;;;;5012229;28;20025;-80
2023/09/22 07:39:53;;;;;;;9.73;7.03;;;16.00;99.90;;;;;;5011546;28;20022;-80
2023/09/22 07:42:18;;;;;;;7.70;6.90;;;16.00;99.90;;;;;;5003148;28;20498;-79
2023/09/22 07:44:44;;;;;;;7.10;6.38;;;16.10;99.90;;;;;;5013504;28;20542;-78
2023/09/22 07:47:10;;;;;;;7.90;6.80;;;16.10;99.90;;;;;;5006784;28;20026;-78
2023/09/22 07:49:40;;;;;;;7.57;6.38;;;16.10;99.90;;;;;;5014347;28;20264;-79
2023/09/22 07:52:09;;;;;;;7.60;5.80;;;16.00;99.90;;;;;;5014381;28;20026;-80
2023/09/22 07:54:34;;;;;;;8.65;6.57;;;16.00;99.90;;;;;;5006946;28;20022;-79
2023/09/22 07:57:01;;;;;;;6.65;6.05;;;16.10;99.90;;;;;;5015503;28;20196;-80
2023/09/22 07:59:29;;;;;;;6.05;5.45;;;16.10;99.90;;;;;;5012411;28;20029;-80
2023/09/22 08:01:55;;;;;;;8.30;6.15;;;16.10;99.90;;;;;;5010258;28;20034;-79
2023/09/22 08:04:20;;;;;;;9.15;6.13;;;16.20;99.90;;;;;;5009245;28;20033;-81
2023/09/22 08:06:46;;;;;;;6.10;5.47;;;16.20;99.90;;;;;;5009426;28;20029;-79
2023/09/22 08:09:13;;;;;;;7.45;6.25;;;16.30;99.90;;;;;;5003590;28;20044;-79
2023/09/22 08:11:38;;;;;;;7.50;6.55;;;16.30;99.90;;;;;;5010435;28;20040;-81
2023/09/22 08:14:04;;;;;;;6.32;5.70;;;16.30;99.90;;;;;;5010621;28;20022;-81
2023/09/22 08:16:29;;;;;;;6.78;6.18;;;16.30;99.90;;;;;;5008662;28;21409;-80
2023/09/22 08:18:55;;;;;;;6.18;5.57;;;16.40;99.90;;;;;;4998273;28;20022;-79
2023/09/22 08:21:21;;;;;;;6.97;6.25;;;16.40;99.90;;;;;;4999726;28;20529;-79
2023/09/22 08:23:47;;;;;;;5.90;5.35;;;16.50;99.90;;;;;;4998619;28;20038;-80
2023/09/22 08:26:17;;;;;;;6.22;5.43;;;16.50;99.90;;;;;;4998770;28;20021;-79
2023/09/22 08:28:44;;;;;;;5.82;5.20;;;16.60;99.90;;;;;;4993948;28;20118;-79
2023/09/22 08:31:10;;;;;;;8.40;5.63;;;16.60;99.90;;;;;;4998204;28;20130;-80
2023/09/22 08:33:36;;;;;;;6.07;5.25;;;16.70;99.90;;;;;;4995891;28;20022;-79
2023/09/22 08:36:03;;;;;;;5.80;4.72;;;16.70;99.90;;;;;;5003277;28;20486;-79
2023/09/22 08:38:30;;;;;;;5.38;4.63;;;16.80;99.90;;;;;;4995626;28;20466;-79
2023/09/22 08:40:57;;;;;;;7.05;4.80;;;16.90;99.90;;;;;;4994583;28;20042;-79
2023/09/22 08:43:23;;;;;;;4.75;4.32;;;17.00;99.90;;;;;;4996178;28;20033;-79
2023/09/22 08:45:50;;;;;;;5.40;4.85;;;16.90;99.90;;;;;;4995640;28;20034;-80
2023/09/22 08:48:16;;;;;;;5.57;4.60;;;16.90;99.90;;;;;;4994943;28;20026;-79
2023/09/22 08:50:41;;;;;;;5.32;4.82;;;16.80;99.90;;;;;;4994830;28;20041;-78
2023/09/22 08:53:07;;;;;;;6.28;4.88;;;16.90;99.90;;;;;;4995947;28;20031;-79
2023/09/22 08:55:33;;;;;;;4.70;4.20;;;17.00;99.90;;;;;;4995201;28;20071;-79
2023/09/22 08:57:59;;;;;;;4.78;4.35;;;17.10;99.90;;;;;;4995719;28;20266;-80
2023/09/22 09:00:29;;;;;;;5.50;4.82;;;17.10;99.90;;;;;;4997926;28;20030;-79
2023/09/22 09:02:58;;;;;;;6.00;5.03;;;17.20;99.90;;;;;;4996215;28;20030;-78
2023/09/22 09:05:28;;;;;;;6.68;4.82;;;17.20;99.90;;;;;;4995460;28;20071;-80
2023/09/22 09:07:55;;;;;;;5.30;4.80;;;17.20;99.90;;;;;;5000198;28;20025;-79
2023/09/22 09:10:31;;;;;;;4.45;3.85;;;17.20;99.90;;;;;;5007750;28;20023;-80
2023/09/22 09:13:01;;;;;;;5.30;4.45;;;17.20;99.90;;;;;;4998812;28;20030;-80
2023/09/22 09:15:27;;;;;;;4.72;4.28;;;17.20;99.90;;;;;;4997254;28;20022;-79
2023/09/22 09:18:07;;;;;;;6.38;5.78;;;17.10;99.90;;;;;;4996584;28;20041;-79
2023/09/22 09:20:35;;;;;;;5.47;4.30;;;17.10;99.90;;;;;;4998304;28;20034;-79
2023/09/22 09:23:18;;;;;;;5.32;4.22;;;17.00;99.90;;;;;;5000176;28;20033;-79
2023/09/22 09:25:54;;;;;;;5.28;4.78;;;16.90;99.90;;;;;;4998768;28;20038;-79
2023/09/22 09:28:21;;;;;;;4.82;3.85;;;16.80;99.90;;;;;;4994176;28;20026;-79
2023/09/22 09:30:48;;;;;;;4.75;4.00;;;16.70;99.90;;;;;;4997137;28;20030;-78
2023/09/22 09:33:14;;;;;;;5.93;4.43;;;16.70;99.90;;;;;;4996295;28;20509;-78
2023/09/22 09:35:41;;;;;;;3.95;3.60;;;16.70;99.90;;;;;;4997285;28;20022;-78
2023/09/22 09:38:08;;;;;;;4.20;3.25;;;16.70;99.90;;;;;;4998484;28;20042;-79
2023/09/22 09:40:38;;;;;;;3.30;3.00;;;16.80;99.90;;;;;;4993707;28;20155;-78
2023/09/22 09:43:12;;;;;;;3.15;2.85;;;16.80;99.90;;;;;;4996223;28;20046;-80
2023/09/22 09:45:45;;;;;;;2.92;2.70;;;16.80;99.90;;;;;;4993769;28;20030;-79
2023/09/22 09:48:16;;;;;;;4.55;3.40;;;16.90;99.90;;;;;;4994275;28;20050;-78
2023/09/22 09:50:51;;;;;;;8.38;2.70;;;17.00;99.90;;;;;;4996040;28;20049;-79
2023/09/22 09:53:42;;;;;;;4.60;3.05;;;17.10;99.90;;;;;;4998931;28;20026;-79
2023/09/22 09:56:13;;;;;;;3.95;2.67;;;17.10;99.90;;;;;;4997926;28;20053;-78
2023/09/22 09:58:39;;;;;;;3.28;2.78;;;17.10;99.90;;;;;;4997154;28;20033;-79
2023/09/22 10:01:05;;;;;;;3.08;2.75;;;17.00;99.90;;;;;;4996796;28;20034;-79
2023/09/22 10:03:33;;;;;;;2.85;2.65;;;17.00;99.90;;;;;;5000143;28;20422;-79
2023/09/22 10:06:02;;;;;;;4.25;2.83;;;17.10;99.90;;;;;;4998815;28;20022;-79
2023/09/22 10:08:28;;;;;;;5.53;3.08;;;17.10;99.90;;;;;;4998188;28;20030;-78
2023/09/22 10:10:58;;;;;;;3.00;2.40;;;17.20;99.90;;;;;;4997922;28;20025;-79
2023/09/22 10:13:24;;;;;;;3.92;2.38;;;17.20;99.90;;;;;;4999600;28;20525;-78
2023/09/22 10:15:58;;;;;;;3.35;2.33;;;17.30;99.90;;;;;;4997432;28;20022;-80
2023/09/22 10:18:55;;;;;;;2.00;1.80;;;17.50;99.90;;;;;;4997007;28;20598;-78
2023/09/22 10:21:45;;;;;;;;;;;17.60;99.90;;;;;;5006246;28;20030;-78
2023/09/22 10:24:32;;;;;;;3.17;2.17;;;17.60;99.90;;;;;;4999893;28;19913;-78
2023/09/22 10:27:03;;;;;;;3.92;2.63;;;17.70;99.90;;;;;;5002673;28;20034;-78
2023/09/22 10:29:35;;;;;;;5.63;2.38;;;17.60;99.90;;;;;;4999975;28;20039;-78
2023/09/22 10:32:19;;;;;;;1.63;1.52;;;17.60;99.90;;;;;;4999928;28;20045;-79
2023/09/22 10:34:51;;;;;;;1.92;1.55;;;17.50;99.90;;;;;;5003285;28;20018;-80
2023/09/22 10:37:24;;;;;;;1.60;1.35;;;17.40;99.90;;;;;;5000739;28;20216;-80
2023/09/22 10:39:56;;;;;;;1.60;1.48;;;17.40;99.90;;;;;;5001983;28;20018;-79
2023/09/22 10:42:23;;;;;;;1.90;1.40;;;17.40;99.90;;;;;;5000892;28;20409;-79
2023/09/22 10:45:03;;;;;;;1.95;1.77;;;17.60;99.90;;;;;;5004510;28;20046;-80
2023/09/22 10:47:45;;;;;;;1.92;1.38;;;17.70;99.90;;;;;;4998217;28;20046;-79
2023/09/22 10:50:24;;;;;;;2.45;1.58;;;17.80;99.90;;;;;;5009710;28;20098;-78
2023/09/22 10:53:07;;;;;;;1.75;1.42;;;17.90;99.90;;;;;;5012376;28;20329;-80
2023/09/22 10:55:37;;;;;;;1.63;1.30;;;18.00;99.90;;;;;;5003775;28;20038;-79
2023/09/22 10:58:07;;;;;;;1.77;1.50;;;18.10;99.90;;;;;;5001431;28;20025;-79
2023/09/22 11:00:43;;;;;;;2.88;1.50;;;18.30;99.90;;;;;;5002676;28;20108;-80
2023/09/22 11:03:16;;;;;;;1.85;1.48;;;18.30;99.90;;;;;;5000833;28;20022;-79
2023/09/22 11:05:43;;;;;;;3.00;1.33;;;18.20;99.90;;;;;;5002820;28;20034;-79
2023/09/22 11:08:18;;;;;;;1.98;1.23;;;18.10;99.90;;;;;;5000595;28;20060;-78
2023/09/22 11:10:53;;;;;;;3.17;1.10;;;18.10;99.90;;;;;;5000907;28;20026;-79
2023/09/22 11:13:19;;;;;;;2.65;1.63;;;18.10;99.90;;;;;;5000433;28;20309;-78
2023/09/22 11:16:01;;;;;;;0.85;0.77;;;18.20;99.90;;;;;;5001172;28;20422;-79
2023/09/22 11:18:32;;;;;;;3.47;1.33;;;18.20;99.90;;;;;;5002009;28;20029;-78
2023/09/22 11:21:10;;;;;;;2.70;1.38;;;18.20;99.90;;;;;;4999552;28;20022;-80
2023/09/22 11:23:38;;;;;;;1.88;0.95;;;18.10;99.90;;;;;;5000936;28;20727;-78
2023/09/22 11:26:14;;;;;;;0.95;0.80;;;18.00;99.90;;;;;;4995935;28;20026;-78
2023/09/22 11:28:44;;;;;;;1.52;1.10;;;18.00;99.90;;;;;;4997262;28;20034;-78
2023/09/22 11:31:18;;;;;;;3.67;1.02;;;18.00;99.90;;;;;;4996455;28;20156;-78
2023/09/22 11:33:44;;;;;;;2.58;1.10;;;18.00;99.90;;;;;;4997642;28;20040;-78
2023/09/22 11:36:11;;;;;;;3.60;1.15;;;18.00;99.90;;;;;;4998251;28;20034;-80
2023/09/22 11:38:40;;;;;;;2.08;1.20;;;17.90;99.90;;;;;;4999032;28;20030;-78
2023/09/22 11:41:08;;;;;;;1.70;1.15;;;18.00;99.90;;;;;;4996357;28;20374;-79
2023/09/22 11:43:42;;;;;;;2.90;1.27;;;18.10;99.90;;;;;;4995927;28;20033;-80
2023/09/22 11:46:23;;;;;;;1.42;1.33;;;18.20;99.90;;;;;;4997877;28;20029;-79
2023/09/22 11:49:02;;;;;;;1.92;1.45;;;18.20;99.90;;;;;;4997394;28;20164;-78
2023/09/22 11:51:43;;;;;;;2.30;1.58;;;18.20;99.90;;;;;;4998983;28;20039;-79
2023/09/22 11:54:10;;;;;;;1.80;1.40;;;18.30;99.90;;;;;;4998843;28;20061;-78
2023/09/22 11:56:36;;;;;;;2.83;2.08;;;18.30;99.90;;;;;;5001307;28;20030;-77
2023/09/22 11:59:09;;;;;;;4.00;1.70;;;18.40;99.90;;;;;;5000755;28;20025;-78
2023/09/22 12:01:35;;;;;;;3.67;2.05;;;18.40;99.90;;;;;;5000712;28;20046;-78
2023/09/22 12:04:01;;;;;;;2.85;1.60;;;18.40;99.90;;;;;;4998757;28;20033;-79
2023/09/22 12:06:27;;;;;;;2.90;1.75;;;18.30;99.90;;;;;;4997034;28;20405;-78
2023/09/22 12:08:53;;;;;;;1.98;1.45;;;18.30;99.90;;;;;;4996194;28;20042;-79
2023/09/22 12:11:18;;;;;;;2.17;1.98;;;18.30;99.90;;;;;;4999925;28;20022;-78
2023/09/22 12:13:46;;;;;;;2.03;1.83;;;18.40;99.90;;;;;;4995942;28;20105;-78
2023/09/22 12:16:12;;;;;;;4.10;2.08;;;18.40;99.90;;;;;;4997472;28;20654;-78
2023/09/22 12:18:38;;;;;;;3.28;2.30;;;18.40;99.90;;;;;;5000475;28;20046;-80
2023/09/22 12:21:03;;;;;;;2.33;2.13;;;18.40;99.90;;;;;;4997561;28;20046;-78
2023/09/22 12:23:29;;;;;;;1.80;1.70;;;18.50;99.90;;;;;;4995661;28;20026;-78
2023/09/22 12:25:54;;;;;;;3.65;1.73;;;18.40;99.90;;;;;;4993451;28;20617;-78
2023/09/22 12:28:20;;;;;;;4.15;2.15;;;18.30;99.90;;;;;;4994563;28;20122;-81
2023/09/22 12:30:46;;;;;;;2.20;1.70;;;18.30;99.90;;;;;;4995797;28;20015;-79
2023/09/22 12:33:12;;;;;;;2.20;2.00;;;18.20;99.90;;;;;;5003297;28;20027;-80
2023/09/22 12:35:38;;;;;;;2.20;2.00;;;18.20;99.90;;;;;;4996179;28;20501;-79
2023/09/22 12:38:04;;;;;;;2.53;1.95;;;18.20;99.90;;;;;;4994653;28;20021;-78
2023/09/22 12:40:30;;;;;;;2.42;2.22;;;18.20;99.90;;;;;;4993240;28;20029;-79
2023/09/22 12:42:56;;;;;;;2.30;1.83;;;18.20;99.90;;;;;;5001195;28;20018;-81
2023/09/22 12:45:22;;;;;;;2.65;2.30;;;18.20;99.90;;;;;;4994070;28;20088;-79
2023/09/22 12:47:51;;;;;;;2.63;1.90;;;18.10;99.90;;;;;;4993919;28;20492;-80